Time;durP1;ratioP1;P1;durP2;ratioP2;P2;SDS_P1;SDS_P2;PMS_P1;PMS_P2;Temp;Humidity;BMP_temperature;BMP_pressure;BME280_temperature;BME280_humidity;BME280_pressure;Samples;Min_cycle;Max_cycle;Signal;HPM_P1;HPM_P2
2022/07/15 00:00:44;;;;;;;6.67;4.30;;;;;;;20.91;65.65;99349.86;1681930;85;21051;-69
2022/07/15 00:03:12;;;;;;;4.00;3.65;;;;;;;20.89;65.68;99350.77;1682232;85;21036;-71
2022/07/15 00:05:38;;;;;;;5.35;3.98;;;;;;;20.88;65.68;99348.59;1681460;85;21137;-70
2022/07/15 00:08:05;;;;;;;4.37;3.62;;;;;;;20.88;65.53;99345.05;1675913;85;20938;-71
2022/07/15 00:10:34;;;;;;;4.00;3.20;;;;;;;20.88;65.57;99339.59;1676724;85;21041;-71
2022/07/15 00:13:02;;;;;;;5.87;3.85;;;;;;;20.87;65.57;99338.78;1676970;85;21124;-73
2022/07/15 00:15:31;;;;;;;4.33;3.90;;;;;;;20.85;65.88;99331.48;1676655;85;20990;-70
2022/07/15 00:18:04;;;;;;;4.05;3.75;;;;;;;20.83;65.98;99332.37;1676679;85;21131;-71
2022/07/15 00:20:34;;;;;;;4.50;3.60;;;;;;;20.82;66.06;99341.69;1636883;85;21018;-71
2022/07/15 00:22:58;;;;;;;4.87;3.60;;;;;;;20.78;66.09;99339.38;1676514;84;21485;-72
2022/07/15 00:25:25;;;;;;;3.98;3.58;;;;;;;20.76;66.08;99339.47;1663145;85;21015;-74
2022/07/15 00:27:56;;;;;;;3.25;2.95;;;;;;;20.74;66.07;99334.88;1641769;85;21053;-67
2022/07/15 00:30:23;;;;;;;4.15;3.72;;;;;;;20.72;66.08;99328.37;1676655;85;21916;-67
2022/07/15 00:32:51;;;;;;;7.03;3.42;;;;;;;20.70;66.05;99327.91;1661102;85;21001;-68
2022/07/15 00:35:19;;;;;;;3.98;3.67;;;;;;;20.68;66.12;99332.08;1676655;85;21057;-70
2022/07/15 00:37:46;;;;;;;4.30;3.95;;;;;;;20.66;66.11;99328.88;1676196;85;21541;-70
2022/07/15 00:40:13;;;;;;;5.10;4.70;;;;;;;20.62;66.40;99330.66;1676726;85;21087;-71
2022/07/15 00:42:44;;;;;;;5.15;3.62;;;;;;;20.58;66.39;99318.75;1683703;84;21909;-70
2022/07/15 00:45:21;;;;;;;8.08;4.95;;;;;;;20.56;66.41;99308.73;1685882;85;21028;-72
2022/07/15 00:47:55;;;;;;;5.92;4.08;;;;;;;20.53;66.38;99311.53;1685582;85;21122;-72
2022/07/15 00:50:25;;;;;;;5.15;4.65;;;;;;;20.53;66.46;99314.86;1685774;84;20976;-68
2022/07/15 00:53:05;;;;;;;6.67;5.10;;;;;;;20.41;66.76;99309.48;1686022;85;21056;-69
2022/07/15 00:55:35;;;;;;;5.85;4.78;;;;;;;20.30;67.34;99308.73;1685869;85;21832;-69
2022/07/15 00:58:04;;;;;;;4.87;4.08;;;;;;;20.16;67.64;99315.73;1685787;85;20898;-68
2022/07/15 01:00:32;;;;;;;4.65;4.17;;;;;;;20.15;67.68;99307.85;1685828;84;20995;-72
2022/07/15 01:03:00;;;;;;;5.92;3.95;;;;;;;20.16;67.55;99306.17;1686001;85;21072;-74
2022/07/15 01:05:28;;;;;;;4.42;4.03;;;;;;;20.22;67.15;99302.16;1685419;85;21114;-72
2022/07/15 01:07:55;;;;;;;5.67;3.75;;;;;;;20.27;66.90;99303.92;1685544;84;21268;-78
2022/07/15 01:10:27;;;;;;;6.60;3.55;;;;;;;20.27;66.90;99303.92;1685756;84;21529;-75
2022/07/15 01:12:53;;;;;;;5.22;3.17;;;;;;;20.27;66.88;99302.00;1685472;84;21533;-76
2022/07/15 01:15:21;;;;;;;5.75;4.25;;;;;;;20.26;67.01;99303.12;1685376;85;21505;-76
2022/07/15 01:17:48;;;;;;;6.00;5.40;;;;;;;20.28;67.25;99301.44;1685844;85;21099;-75
2022/07/15 01:20:17;;;;;;;6.22;4.40;;;;;;;20.25;67.66;99299.33;1686172;85;21882;-76
2022/07/15 01:22:45;;;;;;;4.45;4.05;;;;;;;20.25;67.66;99299.33;1659994;85;21015;-75
2022/07/15 01:25:14;;;;;;;6.53;4.33;;;;;;;20.22;67.52;99306.82;1685607;85;20924;-74
2022/07/15 01:27:41;;;;;;;6.17;5.58;;;;;;;20.16;67.95;99305.37;1685848;85;21115;-74
2022/07/15 01:30:11;;;;;;;5.83;4.83;;;;;;;20.06;68.58;99308.42;1667812;85;21561;-74
2022/07/15 01:32:38;;;;;;;6.53;5.85;;;;;;;20.00;69.05;99309.14;1685810;85;21107;-75
2022/07/15 01:35:07;;;;;;;7.08;4.55;;;;;;;19.89;69.65;99303.78;1685850;85;20948;-75
2022/07/15 01:37:36;;;;;;;5.15;4.65;;;;;;;19.78;70.14;99306.57;1646185;85;21067;-74
2022/07/15 01:40:07;;;;;;;7.20;4.97;;;;;;;19.62;70.76;99310.31;1685939;85;21049;-81
2022/07/15 01:42:33;;;;;;;7.35;5.03;;;;;;;19.46;71.35;99306.45;1685745;84;21108;-77
2022/07/15 01:45:00;;;;;;;5.17;4.78;;;;;;;19.26;72.36;99302.35;1685790;84;21108;-76
2022/07/15 01:47:27;;;;;;;8.08;5.25;;;;;;;19.10;73.15;99310.15;1684440;84;21021;-74
2022/07/15 01:49:54;;;;;;;7.72;5.22;;;;;;;18.99;73.72;99303.36;1685838;84;21089;-75
2022/07/15 01:52:28;;;;;;;8.00;6.05;;;;;;;18.94;74.34;99306.25;1674540;85;21497;-75
2022/07/15 01:54:55;;;;;;;6.78;6.00;;;;;;;18.98;74.66;99310.52;1686759;85;21012;-73
2022/07/15 01:57:22;;;;;;;6.42;5.72;;;;;;;19.04;74.66;99303.81;1686995;85;21383;-74
2022/07/15 01:59:54;;;;;;;6.47;5.80;;;;;;;19.08;74.56;99306.14;1687033;84;20976;-73
2022/07/15 02:02:22;;;;;;;9.53;5.50;;;;;;;19.14;74.31;99309.76;1685863;84;20956;-74
2022/07/15 02:04:49;;;;;;;5.95;5.40;;;;;;;19.23;74.06;99309.00;1687352;84;20940;-73
2022/07/15 02:07:16;;;;;;;7.90;5.65;;;;;;;19.32;73.74;99316.65;1687187;85;21021;-74
2022/07/15 02:09:43;;;;;;;8.55;5.65;;;;;;;19.37;73.45;99309.13;1687428;84;21144;-73
2022/07/15 02:12:10;;;;;;;8.85;6.00;;;;;;;19.44;73.19;99312.77;1687347;84;20944;-74
2022/07/15 02:14:38;;;;;;;7.47;6.67;;;;;;;19.46;72.96;99309.98;1668817;85;20909;-74
2022/07/15 02:17:05;;;;;;;7.00;6.30;;;;;;;19.47;72.87;99310.20;1687316;85;21101;-73
2022/07/15 02:19:38;;;;;;;7.97;6.55;;;;;;;19.43;72.91;99306.48;1686284;84;21044;-73
2022/07/15 02:22:05;;;;;;;7.00;6.28;;;;;;;19.41;72.92;99309.29;1686618;85;21572;-73
2022/07/15 02:24:31;;;;;;;5.78;5.25;;;;;;;19.38;72.95;99302.53;1643954;86;21420;-74
2022/07/15 02:26:58;;;;;;;4.85;4.45;;;;;;;19.37;72.96;99298.22;1683049;85;21044;-73
2022/07/15 02:29:27;;;;;;;8.08;5.65;;;;;;;19.37;72.99;99298.22;1686757;85;21556;-73
2022/07/15 02:31:55;;;;;;;6.83;6.25;;;;;;;19.37;72.99;99294.69;1686017;84;21059;-74
2022/07/15 02:34:22;;;;;;;8.15;6.87;;;;;;;19.39;73.03;99300.61;1685102;85;21059;-74
2022/07/15 02:36:49;;;;;;;11.75;7.67;;;;;;;19.40;73.12;99293.48;1684420;85;21047;-73
2022/07/15 02:39:16;;;;;;;16.07;14.40;;;;;;;19.46;72.95;99295.54;1685558;84;21549;-76
2022/07/15 02:41:43;;;;;;;10.90;9.08;;;;;;;19.50;72.72;99297.88;1685929;84;21005;-74
2022/07/15 02:44:11;;;;;;;10.00;6.92;;;;;;;19.51;72.68;99293.47;1685777;84;21017;-75
2022/07/15 02:46:39;;;;;;;9.15;6.60;;;;;;;19.53;72.61;99289.03;1685825;85;21238;-76
2022/07/15 02:49:07;;;;;;;10.05;7.35;;;;;;;19.58;72.81;99291.05;1685833;84;21087;-75
2022/07/15 02:51:35;;;;;;;8.05;7.35;;;;;;;19.51;72.97;99289.38;1686103;84;21186;-75
2022/07/15 02:54:02;;;;;;;8.10;7.30;;;;;;;19.39;73.45;99286.41;1685854;85;21506;-75
2022/07/15 02:56:30;;;;;;;10.13;8.65;;;;;;;19.26;74.00;99286.55;1667933;85;21106;-74
2022/07/15 02:58:57;;;;;;;11.73;8.10;;;;;;;19.16;74.47;99290.37;1685743;85;22802;-74
2022/07/15 03:01:24;;;;;;;7.47;6.55;;;;;;;19.13;74.88;99287.73;1685797;84;21051;-75
2022/07/15 03:03:53;;;;;;;7.47;6.58;;;;;;;19.13;75.27;99285.00;1685898;84;21048;-75
2022/07/15 03:06:21;;;;;;;12.73;9.70;;;;;;;19.14;75.44;99280.33;1685922;84;21057;-74
2022/07/15 03:08:48;;;;;;;17.42;11.05;;;;;;;19.09;75.78;99282.64;1685843;85;21071;-75
2022/07/15 03:11:15;;;;;;;9.40;7.67;;;;;;;19.15;75.93;99284.11;1685834;85;21444;-74
2022/07/15 03:13:42;;;;;;;7.33;6.58;;;;;;;19.27;75.36;99287.61;1685835;84;21000;-74
2022/07/15 03:16:10;;;;;;;7.67;5.87;;;;;;;19.36;74.71;99291.71;1685118;85;21079;-74
2022/07/15 03:18:38;;;;;;;6.80;5.58;;;;;;;19.38;74.18;99294.91;1685996;85;21041;-75
2022/07/15 03:21:05;;;;;;;8.53;6.15;;;;;;;19.43;73.89;99289.30;1686026;84;21020;-74
2022/07/15 03:23:32;;;;;;;6.92;6.33;;;;;;;19.38;74.13;99288.89;1668343;85;21313;-74
2022/07/15 03:25:59;;;;;;;10.32;6.67;;;;;;;19.33;74.23;99284.17;1685965;84;21033;-74
2022/07/15 03:28:27;;;;;;;9.83;7.03;;;;;;;19.30;74.64;99283.42;1685993;84;21057;-74
2022/07/15 03:30:55;;;;;;;7.42;5.15;;;;;;;19.30;74.74;99287.52;1685520;84;21000;-72
2022/07/15 03:33:22;;;;;;;5.28;4.78;;;;;;;19.35;74.67;99290.09;1685986;84;21021;-76
2022/07/15 03:35:51;;;;;;;6.22;5.60;;;;;;;19.37;74.45;99287.88;1685937;84;22128;-74
2022/07/15 03:38:19;;;;;;;6.85;5.92;;;;;;;19.37;74.40;99294.13;1685542;85;21025;-72
2022/07/15 03:40:46;;;;;;;7.67;6.03;;;;;;;19.38;74.37;99292.18;1685866;84;21014;-73
2022/07/15 03:43:13;;;;;;;8.38;7.00;;;;;;;19.40;74.29;99290.76;1684816;84;21179;-75
2022/07/15 03:45:40;;;;;;;7.60;6.03;;;;;;;19.42;74.16;99292.63;1673828;85;21562;-73
2022/07/15 03:48:07;;;;;;;7.40;5.55;;;;;;;19.45;74.03;99290.64;1703720;83;21096;-73
2022/07/15 03:50:35;;;;;;;6.12;5.53;;;;;;;19.50;73.90;99295.14;1691591;83;21024;-74
2022/07/15 03:53:02;;;;;;;7.08;6.37;;;;;;;19.54;73.84;99297.47;1682635;85;21024;-72
2022/07/15 03:55:30;;;;;;;5.97;5.15;;;;;;;19.60;73.73;99294.84;1668485;85;21142;-73
2022/07/15 03:57:57;;;;;;;7.78;6.87;;;;;;;19.65;73.65;99294.69;1686592;84;21091;-72
2022/07/15 04:00:24;;;;;;;9.30;5.92;;;;;;;19.69;73.56;99296.20;1686072;84;21540;-73
2022/07/15 04:02:53;;;;;;;5.47;4.70;;;;;;;19.70;73.54;99309.55;1682907;85;21494;-74
2022/07/15 04:05:20;;;;;;;5.42;4.75;;;;;;;19.72;73.51;99319.56;1684047;85;21057;-72
2022/07/15 04:07:49;;;;;;;6.78;6.17;;;;;;;19.68;73.61;99356.80;1673519;85;21053;-74
2022/07/15 04:10:16;;;;;;;10.08;5.80;;;;;;;19.58;74.33;99377.00;1673993;85;20939;-74
2022/07/15 04:12:43;;;;;;;5.35;4.60;;;;;;;19.49;74.76;99349.45;1673794;85;21099;-74
2022/07/15 04:15:10;;;;;;;7.78;5.47;;;;;;;19.42;75.44;99341.72;1671102;85;21050;-75
2022/07/15 04:17:37;;;;;;;7.35;5.95;;;;;;;19.43;75.76;99347.95;1686677;85;21029;-74
2022/07/15 04:20:08;;;;;;;6.55;5.83;;;;;;;19.45;75.96;99352.02;1674951;85;21053;-75
2022/07/15 04:22:43;;;;;;;6.40;5.80;;;;;;;19.46;76.09;99338.63;1668150;85;21072;-75
2022/07/15 04:25:11;;;;;;;6.87;6.15;;;;;;;19.46;76.28;99338.63;1646845;87;21847;-75
2022/07/15 04:27:38;;;;;;;5.97;5.42;;;;;;;19.45;76.61;99330.19;1633442;87;21051;-75
2022/07/15 04:30:07;;;;;;;7.92;6.10;;;;;;;19.44;76.89;99319.59;1657953;85;21496;-75
2022/07/15 04:32:38;;;;;;;6.08;5.58;;;;;;;19.43;77.19;99313.85;1680095;85;21060;-74
2022/07/15 04:35:07;;;;;;;8.93;5.53;;;;;;;19.40;77.54;99309.85;1683130;85;21556;-75
2022/07/15 04:37:34;;;;;;;6.67;5.83;;;;;;;19.38;77.85;99309.35;1686416;85;21306;-77
2022/07/15 04:40:00;;;;;;;8.88;8.03;;;;;;;19.40;78.13;99308.48;1686638;85;21021;-75
2022/07/15 04:42:28;;;;;;;7.10;6.47;;;;;;;19.42;78.31;99287.16;1687187;84;20948;-76
2022/07/15 04:44:54;;;;;;;7.17;5.90;;;;;;;19.47;78.48;99266.56;1686923;85;21111;-76
2022/07/15 04:47:22;;;;;;;8.08;6.95;;;;;;;19.48;78.77;99254.53;1686337;85;21550;-75
2022/07/15 04:52:35;;;;;;;8.70;7.12;;;;;;;19.45;79.82;99239.37;1691118;84;21412;-76
2022/07/15 04:55:02;;;;;;;7.78;7.08;;;;;;;19.34;80.53;99253.84;1691153;84;20996;-75
2022/07/15 04:57:33;;;;;;;7.35;6.65;;;;;;;19.32;81.03;99245.19;1669699;85;21155;-73
2022/07/15 05:00:02;;;;;;;9.35;6.55;;;;;;;19.33;81.72;99250.09;1680597;85;21024;-74
2022/07/15 05:02:30;;;;;;;11.05;7.65;;;;;;;19.31;82.32;99249.03;1691042;84;22218;-73
2022/07/15 05:04:57;;;;;;;9.93;9.03;;;;;;;19.29;82.68;99247.73;1675162;85;21007;-74
2022/07/15 05:07:24;;;;;;;7.83;7.03;;;;;;;19.30;83.17;99256.16;1690847;84;21064;-74
2022/07/15 05:09:51;;;;;;;10.95;7.75;;;;;;;19.30;83.40;99263.78;1669265;85;21578;-75
2022/07/15 05:12:18;;;;;;;9.50;7.87;;;;;;;19.30;83.96;99273.88;1687287;85;21475;-73
2022/07/15 05:14:51;;;;;;;11.73;8.08;;;;;;;19.30;84.39;99278.78;1680061;85;20968;-75
2022/07/15 05:17:18;;;;;;;14.33;8.53;;;;;;;19.31;84.23;99275.50;1690999;84;21001;-75
2022/07/15 05:19:45;;;;;;;11.68;8.18;;;;;;;19.37;84.25;99276.96;1691127;84;21012;-76
2022/07/15 05:22:16;;;;;;;12.58;8.65;;;;;;;19.41;84.24;99275.20;1690848;84;21076;-76
2022/07/15 05:24:46;;;;;;;9.93;8.18;;;;;;;19.45;84.09;99268.02;1690900;84;20984;-77
2022/07/15 05:27:14;;;;;;;10.40;7.40;;;;;;;19.50;84.32;99270.59;1687269;84;21246;-75
2022/07/15 05:29:42;;;;;;;8.33;6.45;;;;;;;19.53;84.44;99265.85;1680326;85;21045;-76
2022/07/15 05:32:08;;;;;;;8.10;6.60;;;;;;;19.55;84.52;99264.98;1680562;85;20959;-78
2022/07/15 05:34:35;;;;;;;9.18;7.67;;;;;;;19.58;85.04;99265.14;1680478;85;21003;-76
2022/07/15 05:37:02;;;;;;;9.83;8.78;;;;;;;19.67;84.81;99251.50;1679453;85;21111;-77
2022/07/15 05:39:29;;;;;;;19.73;16.10;;;;;;;19.78;84.71;99251.99;1696180;83;21234;-76
2022/07/15 05:41:58;;;;;;;10.70;9.65;;;;;;;19.85;84.69;99240.84;1691165;84;21521;-77
2022/07/15 05:44:27;;;;;;;10.23;9.23;;;;;;;19.82;83.74;99247.48;1679781;85;21053;-76
2022/07/15 05:46:54;;;;;;;13.08;8.70;;;;;;;19.81;83.77;99235.77;1691055;84;21548;-75
2022/07/15 05:49:23;;;;;;;9.78;8.45;;;;;;;19.81;83.77;99235.77;1687422;84;21618;-77
2022/07/15 05:51:51;;;;;;;11.78;7.05;;;;;;;19.82;83.64;99221.56;1685650;85;21985;-76
2022/07/15 05:54:18;;;;;;;8.08;7.37;;;;;;;19.84;84.18;99221.50;1685714;84;20988;-76
2022/07/15 05:56:45;;;;;;;10.10;9.05;;;;;;;19.85;83.98;99227.77;1685891;84;20933;-77
2022/07/15 05:59:15;;;;;;;11.15;8.88;;;;;;;19.84;84.15;99231.05;1690087;83;20989;-76
2022/07/15 06:01:44;;;;;;;7.78;6.97;;;;;;;19.85;84.09;99223.66;1676786;85;21632;-77
2022/07/15 06:04:13;;;;;;;12.35;8.05;;;;;;;19.86;84.52;99220.59;1678388;85;21105;-76
2022/07/15 06:06:42;;;;;;;9.80;8.83;;;;;;;19.85;84.71;99209.46;1690055;84;21537;-76
2022/07/15 06:09:09;;;;;;;12.15;10.13;;;;;;;19.88;85.32;99201.17;1669407;84;21577;-76
2022/07/15 06:11:38;;;;;;;10.48;9.33;;;;;;;19.95;85.71;99211.83;1658208;86;21083;-75
2022/07/15 06:14:06;;;;;;;10.65;9.65;;;;;;;19.97;85.54;99207.42;1653132;86;21516;-76
2022/07/15 06:16:34;;;;;;;8.63;7.62;;;;;;;19.98;85.67;99197.55;1655685;85;21166;-75
2022/07/15 06:19:01;;;;;;;17.10;7.97;;;;;;;20.06;85.96;99205.48;1685939;85;20994;-74
2022/07/15 06:21:29;;;;;;;10.60;8.48;;;;;;;20.14;85.92;99197.86;1685189;85;20967;-73
2022/07/15 06:23:56;;;;;;;12.05;10.03;;;;;;;20.20;85.73;99188.90;1685536;84;21043;-75
2022/07/15 06:26:23;;;;;;;12.53;9.53;;;;;;;20.24;85.45;99183.05;1686099;84;20988;-75
2022/07/15 06:28:50;;;;;;;13.88;10.72;;;;;;;20.32;85.18;99176.78;1685386;85;21161;-76
2022/07/15 06:31:18;;;;;;;13.05;9.53;;;;;;;20.38;84.72;99175.48;1685610;84;21513;-78
2022/07/15 06:33:45;;;;;;;11.45;10.23;;;;;;;20.43;84.36;99171.20;1685926;84;21078;-75
2022/07/15 06:36:13;;;;;;;16.05;9.65;;;;;;;20.42;84.21;99175.06;1686132;84;21050;-74
2022/07/15 06:38:44;;;;;;;12.82;8.95;;;;;;;20.49;84.28;99180.80;1685964;85;20920;-75
2022/07/15 06:41:13;;;;;;;9.50;8.63;;;;;;;20.58;84.09;99176.66;1686152;85;21184;-76
2022/07/15 06:43:40;;;;;;;8.53;7.62;;;;;;;20.67;83.92;99174.12;1685347;85;21568;-74
2022/07/15 06:46:11;;;;;;;13.35;8.48;;;;;;;20.77;83.88;99172.39;1673965;85;21084;-74
2022/07/15 06:48:39;;;;;;;8.80;7.97;;;;;;;20.88;83.67;99164.06;1674111;85;21051;-72
2022/07/15 06:51:06;;;;;;;9.18;6.90;;;;;;;21.07;83.18;99158.15;1686534;85;21076;-74
2022/07/15 06:53:33;;;;;;;8.58;6.37;;;;;;;21.26;81.37;99159.09;1677348;85;21239;-75
2022/07/15 06:56:00;;;;;;;6.70;6.05;;;;;;;21.40;80.33;99151.42;1678450;84;21517;-75
2022/07/15 06:58:28;;;;;;;8.70;6.67;;;;;;;21.55;78.62;99147.27;1686802;85;20981;-78
2022/07/15 07:00:56;;;;;;;9.15;6.10;;;;;;;21.64;77.40;99146.63;1686864;85;21095;-76
2022/07/15 07:03:23;;;;;;;7.92;6.12;;;;;;;21.75;77.17;99141.77;1686272;84;21517;-79
2022/07/15 07:05:50;;;;;;;6.67;6.08;;;;;;;21.86;75.96;99143.53;1685720;84;21133;-73
2022/07/15 07:08:17;;;;;;;9.65;6.17;;;;;;;21.93;75.70;99141.59;1686392;85;21584;-75
2022/07/15 07:10:43;;;;;;;6.25;5.53;;;;;;;22.02;75.47;99140.39;1680632;85;20926;-81
2022/07/15 07:13:14;;;;;;;6.37;5.78;;;;;;;22.13;75.23;99145.67;1674154;85;21483;-80
2022/07/15 07:15:40;;;;;;;36.83;27.52;;;;;;;22.23;75.04;99143.07;1674154;85;20990;-85
2022/07/15 07:18:10;;;;;;;7.90;7.20;;;;;;;22.33;74.78;99148.11;1673832;85;21138;-82
2022/07/15 07:20:37;;;;;;;7.40;6.30;;;;;;;22.40;74.65;99142.84;1686844;84;21091;-80
2022/07/15 07:23:04;;;;;;;12.37;7.40;;;;;;;22.50;74.51;99144.34;1683269;84;21128;-83
2022/07/15 07:25:31;;;;;;;6.92;4.97;;;;;;;22.60;74.38;99150.75;1681280;85;20984;-83
2022/07/15 07:28:03;;;;;;;11.97;5.83;;;;;;;22.73;73.88;99144.17;1686795;83;21059;-83
2022/07/15 07:30:27;;;;;;;5.97;5.37;;;;;;;22.87;73.11;99145.19;1686735;84;21161;-82
2022/07/15 07:32:53;;;;;;;10.20;5.40;;;;;;;22.97;72.17;99141.98;1687413;85;20893;-84
2022/07/15 07:35:20;;;;;;;9.95;6.08;;;;;;;22.99;71.70;99146.53;1687306;85;20988;-80
2022/07/15 07:37:47;;;;;;;5.03;4.62;;;;;;;22.99;71.59;99145.95;1687103;85;21044;-82
2022/07/15 07:40:16;;;;;;;9.40;5.42;;;;;;;22.97;71.93;99144.72;1678285;85;21043;-79
2022/07/15 07:42:44;;;;;;;6.42;5.83;;;;;;;22.93;72.27;99145.16;1687554;85;21155;-83
2022/07/15 07:45:13;;;;;;;7.60;6.90;;;;;;;22.92;72.57;99141.64;1678382;84;21033;-83
2022/07/15 07:47:43;;;;;;;7.30;6.00;;;;;;;22.96;72.64;99136.25;1645057;86;21069;-76
2022/07/15 07:50:10;;;;;;;6.08;5.58;;;;;;;23.01;72.93;99134.66;1644309;86;21066;-75
2022/07/15 07:52:37;;;;;;;6.22;5.30;;;;;;;23.04;72.65;99137.49;1639582;86;21080;-76
2022/07/15 07:55:07;;;;;;;5.72;5.22;;;;;;;23.03;72.77;99135.89;1676974;85;21129;-76
2022/07/15 07:57:35;;;;;;;6.55;5.95;;;;;;;23.05;72.59;99141.04;1658771;86;21071;-78
2022/07/15 08:00:04;;;;;;;7.17;5.85;;;;;;;23.09;72.32;99138.39;1648502;86;21040;-76
2022/07/15 08:02:34;;;;;;;6.92;6.12;;;;;;;23.11;71.98;99141.03;1635148;86;21044;-77
2022/07/15 08:05:00;;;;;;;6.55;6.05;;;;;;;23.14;72.45;99143.08;1647849;87;21078;-74
2022/07/15 08:07:29;;;;;;;7.58;6.78;;;;;;;23.23;72.00;99148.42;1636656;86;22182;-80
2022/07/15 08:09:57;;;;;;;7.55;5.85;;;;;;;23.31;71.62;99151.62;1636023;86;20993;-81
2022/07/15 08:12:23;;;;;;;6.17;5.58;;;;;;;23.39;71.32;99156.97;1648460;87;21066;-77
2022/07/15 08:14:51;;;;;;;9.03;6.95;;;;;;;23.51;70.31;99164.95;1648126;87;21538;-77
2022/07/15 08:17:19;;;;;;;6.53;5.58;;;;;;;23.62;70.18;99167.44;1648217;87;21555;-76
2022/07/15 08:19:46;;;;;;;9.33;6.83;;;;;;;23.78;69.29;99168.30;1637754;86;21120;-74
2022/07/15 08:22:14;;;;;;;6.28;5.78;;;;;;;23.90;68.49;99180.02;1641602;86;21275;-77
2022/07/15 08:24:41;;;;;;;5.67;5.20;;;;;;;24.02;68.20;99185.24;1676877;85;21534;-78
2022/07/15 08:27:10;;;;;;;6.40;5.30;;;;;;;24.19;68.17;99197.31;1655992;85;22554;-78
2022/07/15 08:29:38;;;;;;;5.60;5.10;;;;;;;24.37;67.89;99199.14;1636739;87;21541;-78
2022/07/15 08:32:05;;;;;;;5.37;4.87;;;;;;;24.55;67.08;99189.42;1636653;86;21979;-79
2022/07/15 08:34:32;;;;;;;6.20;5.00;;;;;;;24.70;65.73;99185.84;1636727;86;21541;-72
2022/07/15 08:36:59;;;;;;;5.78;4.95;;;;;;;24.84;65.46;99189.55;1641518;86;21039;-74
2022/07/15 08:39:26;;;;;;;4.83;4.42;;;;;;;24.98;64.44;99190.70;1661105;85;21586;-74
2022/07/15 08:41:53;;;;;;;5.50;4.60;;;;;;;25.14;62.97;99191.45;1628183;87;21044;-75
2022/07/15 08:44:19;;;;;;;14.18;4.55;;;;;;;25.27;61.86;99205.92;1666241;85;22051;-76
2022/07/15 08:46:47;;;;;;;5.83;4.45;;;;;;;25.37;61.58;99190.80;1672584;85;21084;-76
2022/07/15 08:49:16;;;;;;;5.37;4.30;;;;;;;25.50;61.18;99197.76;1674891;85;20937;-74
2022/07/15 08:51:46;;;;;;;8.45;4.47;;;;;;;25.56;60.22;99191.62;1674845;85;21052;-74
2022/07/15 08:54:15;;;;;;;4.75;4.35;;;;;;;25.60;59.67;99194.47;1646497;86;21056;-75
2022/07/15 08:56:45;;;;;;;4.50;3.98;;;;;;;25.63;59.59;99192.36;1646447;86;21739;-77
2022/07/15 08:59:11;;;;;;;5.60;5.10;;;;;;;25.62;60.17;99194.89;1675168;85;21557;-76
2022/07/15 09:01:44;;;;;;;6.80;5.03;;;;;;;25.58;61.26;99198.95;1675393;85;20989;-75
2022/07/15 09:04:15;;;;;;;10.40;6.05;;;;;;;25.45;61.77;99213.99;1675482;85;20980;-77
2022/07/15 09:06:47;;;;;;;7.78;5.53;;;;;;;25.24;63.25;99224.52;1670910;85;21086;-77
2022/07/15 09:09:34;;;;;;;7.10;6.50;;;;;;;25.00;64.60;99247.55;1646076;86;21876;-74
2022/07/15 09:12:11;;;;;;;7.15;6.37;;;;;;;24.74;66.03;99233.52;1645269;85;21537;-81
2022/07/15 09:14:42;;;;;;;9.50;7.47;;;;;;;24.55;67.51;99232.84;1675644;84;22263;-77
2022/07/15 09:17:15;;;;;;;7.97;6.55;;;;;;;24.42;68.25;99225.00;1675295;84;21080;-77
2022/07/15 09:20:09;;;;;;;8.75;6.40;;;;;;;24.30;68.79;99225.88;1675717;84;21072;-77
2022/07/15 09:22:50;;;;;;;;;;;;;;;24.24;68.83;99232.78;1649530;87;21218;-77
2022/07/15 09:25:17;;;;;;;6.05;5.55;;;;;;;24.16;68.84;99255.16;1688905;85;20148;-74
2022/07/15 09:27:44;;;;;;;6.05;5.55;;;;;;;24.05;68.41;99234.79;1673942;85;20986;-75
2022/07/15 09:36:18;;;;;;;6.55;5.95;;;;;;;23.98;69.05;99226.33;1647808;86;21992;-75
2022/07/15 09:39:08;;;;;;;6.08;5.47;;;;;;;23.94;69.12;99243.87;1659428;86;20977;-75
2022/07/15 09:41:41;;;;;;;7.47;5.85;;;;;;;23.88;69.11;99230.38;1659964;85;21041;-76
2022/07/15 09:44:19;;;;;;;7.45;5.90;;;;;;;23.86;69.31;99233.27;1656828;85;21113;-72
2022/07/15 09:46:57;;;;;;;6.25;5.65;;;;;;;23.87;69.51;99238.98;1657234;85;21008;-73
2022/07/15 09:49:32;;;;;;;7.08;6.05;;;;;;;23.84;69.72;99240.47;1682789;85;21232;-70
2022/07/15 09:52:09;;;;;;;5.08;4.67;;;;;;;23.84;69.82;99235.55;1681899;85;21031;-73
2022/07/15 09:54:40;;;;;;;8.60;6.80;;;;;;;23.84;69.56;99241.84;1654593;85;21005;-72
2022/07/15 09:57:14;;;;;;;6.28;5.78;;;;;;;23.85;69.68;99246.20;1678295;85;20999;-69
2022/07/15 09:59:46;;;;;;;9.88;6.05;;;;;;;23.84;69.69;99253.40;1677296;85;21100;-70
2022/07/15 10:02:14;;;;;;;7.22;5.22;;;;;;;23.83;69.88;99251.25;1677312;85;21082;-72
2022/07/15 10:04:43;;;;;;;5.60;5.10;;;;;;;23.85;70.04;99260.50;1676526;85;20921;-72
2022/07/15 10:07:09;;;;;;;6.37;5.40;;;;;;;23.86;70.03;99256.61;1676678;85;21028;-75
2022/07/15 10:09:36;;;;;;;6.60;6.00;;;;;;;23.87;70.39;99260.96;1676279;85;21021;-72
2022/07/15 10:12:08;;;;;;;7.03;6.42;;;;;;;23.85;70.93;99264.62;1676706;85;21067;-72
2022/07/15 10:15:00;;;;;;;6.80;6.20;;;;;;;23.84;71.21;99265.19;1662025;85;21529;-71
2022/07/15 10:18:04;;;;;;;7.05;6.17;;;;;;;23.84;71.62;99278.12;1676663;85;21520;-72
2022/07/15 10:21:08;;;;;;;7.65;5.62;;;;;;;23.76;72.25;99274.95;1676558;85;21119;-76
2022/07/15 10:24:01;;;;;;;7.15;6.45;;;;;;;23.73;72.19;99276.45;1676564;85;21051;-76
2022/07/15 10:26:49;;;;;;;7.58;6.95;;;;;;;23.61;72.44;99283.90;1676633;84;21062;-76
2022/07/15 10:29:16;;;;;;;7.15;6.55;;;;;;;23.43;72.36;99281.39;1676764;85;21231;-76
2022/07/15 10:31:43;;;;;;;7.75;7.05;;;;;;;23.28;73.16;99288.95;1676753;85;21053;-74
2022/07/15 10:34:17;;;;;;;8.08;7.25;;;;;;;23.19;73.75;99288.27;1638471;85;20985;-75
2022/07/15 10:36:57;;;;;;;6.60;5.92;;;;;;;23.13;74.09;99284.14;1674950;85;20999;-76
2022/07/15 10:39:50;;;;;;;7.55;6.85;;;;;;;23.10;74.20;99301.30;1673211;85;21035;-77
2022/07/15 10:42:18;;;;;;;8.00;6.58;;;;;;;23.05;74.42;99290.55;1676957;85;21179;-79
2022/07/15 10:45:03;;;;;;;7.62;7.03;;;;;;;23.00;74.73;99306.66;1676134;84;37477;-75
2022/07/15 10:47:32;;;;;;;8.83;6.65;;;;;;;22.94;74.37;99321.73;1664162;85;21250;-75
2022/07/15 10:50:01;;;;;;;7.37;6.60;;;;;;;22.86;74.58;99325.38;1650385;85;21552;-78
2022/07/15 10:52:30;;;;;;;8.83;7.30;;;;;;;22.77;74.93;99333.47;1657382;85;21072;-76
2022/07/15 10:55:01;;;;;;;7.33;6.62;;;;;;;22.68;75.06;99339.02;1676734;85;21870;-71
2022/07/15 10:57:50;;;;;;;9.15;6.72;;;;;;;22.63;74.91;99349.39;1661226;85;20944;-70
2022/07/15 11:00:33;;;;;;;7.42;6.72;;;;;;;22.54;74.85;99353.60;1655061;85;20953;-70
2022/07/15 11:03:14;;;;;;;7.05;6.35;;;;;;;22.42;74.92;99359.02;1678341;85;21066;-75
2022/07/15 11:05:50;;;;;;;8.38;7.37;;;;;;;22.29;75.30;99352.69;1676753;85;21103;-77
2022/07/15 11:08:40;;;;;;;10.53;8.45;;;;;;;22.18;76.14;99373.40;1675651;85;21124;-76
2022/07/15 11:11:21;;;;;;;7.65;7.05;;;;;;;22.07;76.56;99372.99;1674080;85;21509;-78
2022/07/15 11:13:49;;;;;;;8.33;7.62;;;;;;;21.97;77.17;99368.47;1676950;85;21032;-79
2022/07/15 11:16:21;;;;;;;7.17;6.50;;;;;;;21.85;77.81;99369.74;1667276;85;21083;-77
2022/07/15 11:18:50;;;;;;;7.75;6.95;;;;;;;21.72;77.01;99375.71;1676825;85;20943;-72
2022/07/15 11:21:17;;;;;;;7.80;6.83;;;;;;;21.59;77.21;99390.41;1676791;85;21129;-70
2022/07/15 11:23:45;;;;;;;7.78;7.17;;;;;;;21.46;77.53;99403.77;1660788;85;21509;-73
2022/07/15 11:26:12;;;;;;;8.83;8.00;;;;;;;21.30;78.04;99403.49;1676639;85;20984;-72
2022/07/15 11:28:54;;;;;;;8.65;6.65;;;;;;;21.12;78.09;99406.83;1676884;85;21038;-69
2022/07/15 11:31:23;;;;;;;8.43;6.50;;;;;;;20.94;77.70;99407.20;1676166;85;21008;-69
2022/07/15 11:33:54;;;;;;;6.65;6.05;;;;;;;20.72;78.57;99402.75;1676723;85;21558;-69
2022/07/15 11:36:22;;;;;;;6.92;6.33;;;;;;;20.53;79.58;99393.50;1676193;85;21586;-67
2022/07/15 11:38:51;;;;;;;6.80;6.30;;;;;;;20.41;80.95;99392.00;1676760;85;21026;-69
2022/07/15 11:46:54;;;;;;;7.47;5.80;;;;;;;20.05;82.76;99360.85;1681119;85;21322;-72
2022/07/15 11:49:35;;;;;;;6.60;6.10;;;;;;;19.96;84.06;99367.68;1686625;85;20948;-76
2022/07/15 11:52:05;;;;;;;8.30;7.22;;;;;;;19.82;84.75;99383.95;1673081;85;21000;-76
2022/07/15 11:54:38;;;;;;;7.42;6.40;;;;;;;19.83;85.20;99394.56;1671043;85;21078;-74
2022/07/15 11:57:10;;;;;;;7.35;6.65;;;;;;;19.88;85.55;99405.33;1679844;85;21023;-72